Rock Canyon, New Mexico
Current Conditions -  °F | °C
As of 5:53 AM on Sunday 23 Nov 2014 (Local Time) from KTCS Reporting Station
Clear Clear  
Wind Chill: 41°   Ceiling: Unl
Heat Index: 41°   Visibility: 10mi
Dew Point: 18°   Wind: 0mph
Humidity: 40%   Direction: NA
Pressure: 29.84"   Gusts: NA
Location:  33.1893°N, 107.211°W
Report Text: KTCS 231253Z AUTO 00000KT 10SM CLR 05/M08 A2984 RMK AO2 SLP067 T00501078 TSNO
Loading
Personal Weather Stations






























Interactive Weather Map New forecast layout! Learn more

10-Day Weather Forecast

Advertisements
Track Severe Weather on mobile